Time;durP1;ratioP1;P1;durP2;ratioP2;P2;SDS_P1;SDS_P2;PMS_P1;PMS_P2;Temp;Humidity;BMP_temperature;BMP_pressure;BME280_temperature;BME280_humidity;BME280_pressure;Samples;Min_cycle;Max_cycle;Signal;HPM_P1;HPM_P2
2021/12/17 00:04:57;;;;;;;17.80;16.00;;;7.50;99.90;;;;;;10502607;28;20238;-78
2021/12/17 00:10:02;;;;;;;17.40;15.40;;;7.50;99.90;;;;;;10483972;28;20286;-77
2021/12/17 00:15:08;;;;;;;16.70;15.17;;;7.50;99.90;;;;;;10497180;28;20234;-78
2021/12/17 00:52:09;;;;;;;19.83;17.60;;;7.80;99.90;;;;;;10494687;28;20564;-77
2021/12/17 00:57:14;;;;;;;19.07;17.07;;;7.80;99.90;;;;;;10493104;28;20226;-76
2021/12/17 01:02:21;;;;;;;19.20;17.20;;;7.80;99.90;;;;;;10493110;28;20270;-76
2021/12/17 01:07:26;;;;;;;19.27;17.37;;;7.80;99.90;;;;;;10473894;28;20207;-77
2021/12/17 01:12:31;;;;;;;17.40;15.70;;;7.80;99.90;;;;;;10492954;28;20685;-78
2021/12/17 01:18:04;;;;;;;17.47;15.77;;;7.90;99.90;;;;;;10491521;28;20207;-77
2021/12/17 01:23:43;;;;;;;18.73;16.77;;;7.90;99.90;;;;;;10493679;28;20219;-77
2021/12/17 01:45:41;;;;;;;20.50;17.73;;;7.90;99.90;;;;;;10419054;28;20216;-77
2021/12/17 01:56:17;;;;;;;21.30;19.00;;;7.90;99.90;;;;;;10475782;28;20266;-77
2021/12/17 02:01:20;;;;;;;23.20;18.87;;;7.80;99.90;;;;;;10480783;28;20209;-76
2021/12/17 02:06:28;;;;;;;21.37;19.00;;;7.60;99.90;;;;;;10481927;28;20307;-76
2021/12/17 02:12:12;;;;;;;21.77;18.20;;;7.60;99.90;;;;;;10483469;28;20273;-76
2021/12/17 02:23:08;;;;;;;20.97;18.77;;;7.60;99.90;;;;;;10466173;28;20217;-76
2021/12/17 02:33:26;;;;;;;18.93;17.03;;;7.80;99.90;;;;;;10499310;28;20228;-76
2021/12/17 02:38:36;;;;;;;19.20;17.17;;;7.80;99.90;;;;;;10500501;28;20193;-76
2021/12/17 02:49:44;;;;;;;19.77;17.60;;;7.90;99.90;;;;;;10484925;28;20248;-77
2021/12/17 02:54:49;;;;;;;19.50;17.60;;;7.90;99.90;;;;;;10480426;28;20229;-75
2021/12/17 02:59:52;;;;;;;18.83;17.00;;;7.90;99.90;;;;;;10456478;28;20319;-77
2021/12/17 03:04:55;;;;;;;18.67;16.77;;;8.00;99.90;;;;;;10484605;28;20220;-76
2021/12/17 03:10:03;;;;;;;18.60;15.90;;;8.00;99.90;;;;;;10491097;28;20295;-76
2021/12/17 03:15:15;;;;;;;19.67;17.77;;;8.10;99.90;;;;;;10498254;28;20216;-76
2021/12/17 03:25:38;;;;;;;19.93;17.97;;;8.10;99.90;;;;;;10498192;28;20283;-76
2021/12/17 03:30:40;;;;;;;21.60;18.70;;;8.10;99.90;;;;;;10498560;28;20216;-77
2021/12/17 03:35:43;;;;;;;22.00;19.60;;;8.20;99.90;;;;;;10498565;28;20220;-76
2021/12/17 03:40:47;;;;;;;20.10;18.10;;;8.10;99.90;;;;;;10498152;28;20672;-77
2021/12/17 03:46:03;;;;;;;20.23;18.17;;;8.20;99.90;;;;;;10496792;28;20575;-76
2021/12/17 03:51:11;;;;;;;18.83;16.93;;;8.20;99.90;;;;;;10479515;28;20256;-76
2021/12/17 03:56:15;;;;;;;22.10;18.27;;;8.20;99.90;;;;;;10495767;28;20220;-76
2021/12/17 04:01:17;;;;;;;19.73;17.83;;;8.20;99.90;;;;;;10497176;28;20588;-76
2021/12/17 04:06:20;;;;;;;17.90;16.00;;;8.20;99.90;;;;;;10495302;28;20334;-77
2021/12/17 04:11:43;;;;;;;18.47;16.43;;;8.30;99.90;;;;;;10496400;28;20244;-77
2021/12/17 04:17:01;;;;;;;18.53;16.73;;;8.30;99.90;;;;;;10494772;28;20267;-76
2021/12/17 04:22:04;;;;;;;18.70;16.83;;;8.30;99.90;;;;;;10495146;28;20215;-76
2021/12/17 04:27:10;;;;;;;17.93;16.00;;;8.30;99.90;;;;;;10494592;28;20197;-75
2021/12/17 04:32:12;;;;;;;21.00;17.00;;;8.30;99.90;;;;;;10477996;28;20225;-77
2021/12/17 04:37:14;;;;;;;19.97;17.13;;;8.30;99.90;;;;;;10494315;28;20579;-75
2021/12/17 04:42:42;;;;;;;19.43;17.50;;;8.30;99.90;;;;;;10494328;28;20258;-77
2021/12/17 04:58:51;;;;;;;18.77;16.97;;;8.30;99.90;;;;;;10494766;28;20216;-76
2021/12/17 05:03:54;;;;;;;20.43;18.43;;;8.30;99.90;;;;;;10476974;28;20223;-77
2021/12/17 05:09:01;;;;;;;20.50;18.00;;;8.30;99.90;;;;;;10493271;28;20193;-76
2021/12/17 05:19:39;;;;;;;19.50;17.60;;;8.30;99.90;;;;;;10493261;28;20231;-77
2021/12/17 05:24:43;;;;;;;18.03;16.23;;;8.30;99.90;;;;;;10492528;28;20208;-76
2021/12/17 05:29:47;;;;;;;18.40;16.60;;;8.30;99.90;;;;;;10476086;28;20973;-76
2021/12/17 05:34:49;;;;;;;18.50;16.60;;;8.30;99.90;;;;;;10492979;28;20220;-77
2021/12/17 05:39:51;;;;;;;21.17;17.87;;;8.30;99.90;;;;;;10494108;28;20184;-77
2021/12/17 05:44:59;;;;;;;19.43;16.63;;;8.30;99.90;;;;;;10493241;28;20204;-77
2021/12/17 05:50:01;;;;;;;18.47;16.70;;;8.40;99.90;;;;;;10492403;28;20208;-76
2021/12/17 05:55:04;;;;;;;18.60;16.80;;;8.30;99.90;;;;;;10538770;22;20225;-80
2021/12/17 06:00:11;;;;;;;17.97;16.37;;;8.30;99.90;;;;;;10488312;28;20220;-80
2021/12/17 06:05:19;;;;;;;19.57;16.63;;;8.30;99.90;;;;;;10507035;28;20209;-80
2021/12/17 06:10:21;;;;;;;20.13;18.13;;;8.30;99.90;;;;;;10507020;28;20630;-80
2021/12/17 06:15:26;;;;;;;19.67;16.80;;;8.30;99.90;;;;;;10501317;28;20213;-78
2021/12/17 06:20:28;;;;;;;18.97;16.97;;;8.30;99.90;;;;;;10475672;28;20199;-78
2021/12/17 06:25:34;;;;;;;17.90;16.13;;;8.30;99.90;;;;;;10475744;28;20212;-78
2021/12/17 06:30:38;;;;;;;17.97;16.17;;;8.30;99.90;;;;;;10492090;28;20262;-78
2021/12/17 06:35:44;;;;;;;20.03;16.70;;;8.30;99.90;;;;;;10476551;28;20226;-77
2021/12/17 06:40:48;;;;;;;17.23;15.53;;;8.30;99.90;;;;;;10482492;28;20246;-78
2021/12/17 06:45:56;;;;;;;19.03;17.00;;;8.40;99.90;;;;;;10500291;28;20227;-78
2021/12/17 07:19:15;;;;;;;18.17;16.37;;;8.40;99.90;;;;;;10456512;28;20188;-78
2021/12/17 07:40:30;;;;;;;15.00;13.50;;;8.50;99.90;;;;;;10490054;28;20193;-76
2021/12/17 07:45:32;;;;;;;14.70;13.40;;;8.50;99.90;;;;;;10496650;28;20205;-77
2021/12/17 07:50:43;;;;;;;14.47;13.07;;;8.60;99.90;;;;;;10495501;28;20212;-76
2021/12/17 07:55:53;;;;;;;12.63;11.43;;;8.50;99.90;;;;;;10479565;28;20220;-76
2021/12/17 08:00:58;;;;;;;13.50;12.30;;;8.60;99.90;;;;;;10496514;28;20193;-78
2021/12/17 08:06:02;;;;;;;14.13;12.83;;;8.60;99.90;;;;;;10496158;28;20240;-78
2021/12/17 08:11:08;;;;;;;12.00;10.90;;;8.60;99.90;;;;;;10497389;28;20208;-78
2021/12/17 08:16:20;;;;;;;11.93;10.83;;;8.60;99.90;;;;;;10496612;28;20231;-78
2021/12/17 08:26:55;;;;;;;11.60;10.50;;;8.60;99.90;;;;;;10500081;28;20337;-78
2021/12/17 08:32:00;;;;;;;11.30;10.30;;;8.50;99.90;;;;;;10496722;28;20216;-77
2021/12/17 08:37:13;;;;;;;11.63;10.53;;;8.50;99.90;;;;;;10494533;28;20683;-77
2021/12/17 08:42:16;;;;;;;12.90;11.80;;;8.40;99.90;;;;;;10494592;28;20189;-77
2021/12/17 08:47:18;;;;;;;11.43;10.43;;;8.30;99.90;;;;;;10494123;28;20200;-77
2021/12/17 08:52:22;;;;;;;12.63;11.43;;;8.20;99.90;;;;;;10494636;28;20272;-79
2021/12/17 08:57:24;;;;;;;11.00;10.00;;;8.20;99.90;;;;;;10478591;28;20218;-79
2021/12/17 09:02:26;;;;;;;10.93;9.93;;;8.20;99.90;;;;;;10494581;28;20224;-79
2021/12/17 09:07:43;;;;;;;10.43;9.53;;;8.20;99.90;;;;;;10479482;28;20288;-79
2021/12/17 09:13:07;;;;;;;10.60;9.70;;;8.20;99.90;;;;;;10496680;28;20224;-80
2021/12/17 09:18:09;;;;;;;9.23;8.53;;;8.20;99.90;;;;;;10495789;28;20242;-79
2021/12/17 09:23:23;;;;;;;11.00;9.93;;;8.20;99.90;;;;;;10479954;28;20303;-80
2021/12/17 09:28:27;;;;;;;8.97;8.27;;;8.20;99.90;;;;;;10497443;28;20195;-81
2021/12/17 09:33:34;;;;;;;10.40;9.50;;;8.20;99.90;;;;;;10477943;28;20266;-80
2021/12/17 09:38:38;;;;;;;10.53;9.63;;;8.20;99.90;;;;;;10494107;28;20173;-80
2021/12/17 09:43:40;;;;;;;10.57;9.67;;;8.20;99.90;;;;;;10494370;28;20613;-78
2021/12/17 09:48:45;;;;;;;8.83;8.13;;;8.30;99.90;;;;;;10494589;28;20272;-78
2021/12/17 09:53:49;;;;;;;10.50;9.63;;;8.30;99.90;;;;;;10470561;22;20597;-78
2021/12/17 09:58:51;;;;;;;10.30;9.43;;;8.30;99.90;;;;;;10453097;28;20281;-78
2021/12/17 10:04:12;;;;;;;10.03;9.20;;;8.30;99.90;;;;;;10456904;22;20248;-78
2021/12/17 10:09:16;;;;;;;9.20;8.50;;;8.30;99.90;;;;;;10494005;28;20533;-77
2021/12/17 10:14:23;;;;;;;8.60;7.90;;;8.40;99.90;;;;;;10501357;28;20291;-78
2021/12/17 10:19:47;;;;;;;10.60;9.70;;;8.40;99.90;;;;;;10500313;28;20243;-78
2021/12/17 10:25:02;;;;;;;9.13;8.47;;;8.40;99.90;;;;;;10501927;28;20219;-78
2021/12/17 10:30:14;;;;;;;10.70;9.80;;;8.50;99.90;;;;;;10500302;28;20691;-78
2021/12/17 10:35:18;;;;;;;9.57;8.77;;;8.50;99.90;;;;;;10500963;28;20596;-78
2021/12/17 10:40:24;;;;;;;9.87;8.97;;;8.50;99.90;;;;;;10499393;28;20688;-77
2021/12/17 10:45:29;;;;;;;9.80;8.83;;;8.60;99.90;;;;;;10516059;28;20281;-78
2021/12/17 10:50:34;;;;;;;11.00;10.10;;;8.60;99.90;;;;;;10516854;28;20219;-77
2021/12/17 10:55:37;;;;;;;10.83;9.87;;;8.60;99.90;;;;;;10481804;28;20217;-78
2021/12/17 11:00:46;;;;;;;11.40;10.40;;;8.70;99.90;;;;;;10498333;28;20196;-78
2021/12/17 11:05:49;;;;;;;12.53;11.43;;;8.70;99.90;;;;;;10497771;28;20236;-78
2021/12/17 11:10:57;;;;;;;12.20;11.23;;;8.80;99.90;;;;;;10498543;28;20255;-80
2021/12/17 11:16:00;;;;;;;11.97;10.97;;;8.80;99.90;;;;;;10498843;28;20212;-78
2021/12/17 11:21:02;;;;;;;12.87;11.70;;;8.80;99.90;;;;;;10496120;28;20208;-78
2021/12/17 11:26:06;;;;;;;12.07;10.97;;;8.80;99.90;;;;;;10497585;28;20223;-77
2021/12/17 11:31:10;;;;;;;12.40;11.30;;;8.80;99.90;;;;;;10496931;28;20204;-78
2021/12/17 11:36:12;;;;;;;13.67;12.57;;;8.90;99.90;;;;;;10480004;28;20224;-78
2021/12/17 11:41:26;;;;;;;12.60;11.30;;;9.00;99.90;;;;;;10498229;28;20195;-78
2021/12/17 11:46:31;;;;;;;11.90;10.70;;;9.00;99.90;;;;;;10497504;28;20216;-78
2021/12/17 11:51:35;;;;;;;12.23;11.17;;;9.00;99.90;;;;;;10495137;28;20213;-77
2021/12/17 11:56:45;;;;;;;11.77;10.77;;;9.10;99.90;;;;;;10546083;22;20220;-77
2021/12/17 12:02:01;;;;;;;12.50;11.40;;;9.00;99.90;;;;;;10496584;28;20185;-77
2021/12/17 12:07:06;;;;;;;11.50;10.50;;;9.00;99.90;;;;;;10499238;28;20250;-78
2021/12/17 12:12:13;;;;;;;12.80;11.60;;;9.00;99.90;;;;;;10476519;28;20221;-77
2021/12/17 12:17:35;;;;;;;11.50;10.50;;;9.00;99.90;;;;;;10497143;28;20210;-77
2021/12/17 12:22:43;;;;;;;10.97;10.07;;;9.00;99.90;;;;;;10494661;28;20192;-78
2021/12/17 12:27:49;;;;;;;10.27;9.47;;;9.00;99.90;;;;;;10490671;28;20219;-76
2021/12/17 12:33:07;;;;;;;10.67;9.67;;;9.10;99.90;;;;;;10492249;28;20220;-77
2021/12/17 12:38:15;;;;;;;12.40;10.00;;;9.10;99.90;;;;;;10489845;28;20192;-78
2021/12/17 12:43:30;;;;;;;11.43;10.43;;;9.10;99.90;;;;;;10474911;28;20220;-76
2021/12/17 12:48:36;;;;;;;11.43;10.43;;;9.10;99.90;;;;;;10490036;28;20193;-78
2021/12/17 12:53:38;;;;;;;10.03;9.13;;;9.10;99.90;;;;;;10492039;28;20911;-76
2021/12/17 12:58:48;;;;;;;10.13;9.33;;;9.20;99.90;;;;;;10490384;28;20663;-76
2021/12/17 13:03:50;;;;;;;10.63;9.63;;;9.20;99.90;;;;;;10491879;28;20225;-76
2021/12/17 13:08:56;;;;;;;10.97;9.97;;;9.30;99.90;;;;;;10494686;28;20645;-77
2021/12/17 13:14:09;;;;;;;9.57;8.80;;;9.30;99.90;;;;;;10495838;28;20727;-78
2021/12/17 13:24:36;;;;;;;10.70;9.80;;;9.40;99.90;;;;;;10493821;28;20196;-77
2021/12/17 13:29:41;;;;;;;11.30;10.20;;;9.40;99.90;;;;;;10476307;28;20244;-77
2021/12/17 13:34:45;;;;;;;11.17;10.17;;;9.50;99.90;;;;;;10493737;28;20217;-76
2021/12/17 13:39:50;;;;;;;11.57;10.47;;;9.50;99.90;;;;;;10493701;28;20192;-78
2021/12/17 13:44:55;;;;;;;11.57;10.43;;;9.50;99.90;;;;;;10494903;28;20215;-78
2021/12/17 13:50:10;;;;;;;11.37;10.37;;;9.50;99.90;;;;;;10502175;28;20199;-77
2021/12/17 13:55:15;;;;;;;11.80;10.70;;;9.50;99.90;;;;;;10502731;28;20239;-77
2021/12/17 14:00:21;;;;;;;12.27;11.10;;;9.50;99.90;;;;;;10501457;28;20674;-77
2021/12/17 14:05:27;;;;;;;11.27;10.27;;;9.40;99.90;;;;;;10501418;28;20216;-77
2021/12/17 14:10:31;;;;;;;11.80;10.70;;;9.50;99.90;;;;;;10501366;28;20226;-76
2021/12/17 14:15:36;;;;;;;12.43;11.20;;;9.50;99.90;;;;;;10503126;28;20581;-77
2021/12/17 14:20:43;;;;;;;11.23;10.27;;;9.60;99.90;;;;;;10501314;28;20197;-76
2021/12/17 14:25:47;;;;;;;10.73;9.73;;;9.70;99.90;;;;;;10500245;28;20216;-77
2021/12/17 14:30:57;;;;;;;10.77;9.87;;;9.70;99.90;;;;;;10501631;28;20196;-77
2021/12/17 14:36:01;;;;;;;12.10;10.83;;;9.80;99.90;;;;;;10499288;28;20318;-77
2021/12/17 14:41:04;;;;;;;11.50;10.50;;;9.80;99.90;;;;;;10501285;28;20193;-77
2021/12/17 14:46:16;;;;;;;11.80;10.80;;;9.80;99.90;;;;;;10500538;28;20209;-77
2021/12/17 15:02:13;;;;;;;11.70;10.67;;;9.80;99.90;;;;;;10500181;28;20259;-77
2021/12/17 15:07:17;;;;;;;13.43;12.20;;;9.80;99.90;;;;;;10499320;28;20220;-77
2021/12/17 15:12:37;;;;;;;12.70;11.60;;;9.70;99.90;;;;;;10499645;28;20208;-78
2021/12/17 15:17:41;;;;;;;13.23;12.13;;;9.70;99.90;;;;;;10497702;28;20698;-77
2021/12/17 15:22:43;;;;;;;15.50;14.10;;;9.60;99.90;;;;;;10519569;28;20189;-79
2021/12/17 15:27:46;;;;;;;15.00;13.60;;;9.60;99.90;;;;;;10505602;28;20221;-79
2021/12/17 15:32:50;;;;;;;15.43;13.97;;;9.60;99.90;;;;;;10506707;28;20208;-79
2021/12/17 15:37:53;;;;;;;15.57;14.10;;;9.60;99.90;;;;;;10506838;28;20652;-78
2021/12/17 15:43:02;;;;;;;15.17;13.40;;;9.60;99.90;;;;;;10505995;28;20199;-79
2021/12/17 15:48:06;;;;;;;16.53;15.03;;;9.50;99.90;;;;;;10506188;28;20189;-79
2021/12/17 15:53:09;;;;;;;14.70;13.30;;;9.50;99.90;;;;;;10489081;28;20315;-80
2021/12/17 15:58:11;;;;;;;16.60;15.00;;;9.50;99.90;;;;;;10505632;28;20202;-78
2021/12/17 16:03:18;;;;;;;14.70;13.47;;;9.50;99.90;;;;;;10512406;28;20251;-79
2021/12/17 16:08:20;;;;;;;15.90;14.40;;;9.50;99.90;;;;;;10526008;28;20565;-79
2021/12/17 16:18:49;;;;;;;14.37;13.17;;;9.40;99.90;;;;;;10499194;28;20598;-78
2021/12/17 16:23:53;;;;;;;14.87;13.67;;;9.40;99.90;;;;;;10501001;28;20262;-80
2021/12/17 16:28:55;;;;;;;15.27;13.93;;;9.30;99.90;;;;;;10506635;28;20232;-78
2021/12/17 16:34:01;;;;;;;16.03;14.27;;;9.30;99.90;;;;;;10498795;28;20232;-79
2021/12/17 16:39:08;;;;;;;15.47;14.17;;;9.30;99.90;;;;;;10504418;28;20197;-81
2021/12/17 16:44:12;;;;;;;15.23;13.90;;;9.40;99.90;;;;;;10499442;28;20212;-79
2021/12/17 16:49:18;;;;;;;14.00;12.80;;;9.30;99.90;;;;;;10499259;28;20193;-81
2021/12/17 16:54:20;;;;;;;14.97;13.63;;;9.20;99.90;;;;;;10506680;28;20220;-82
2021/12/17 16:59:22;;;;;;;16.40;15.00;;;9.20;99.90;;;;;;10481991;28;20197;-80
2021/12/17 17:04:26;;;;;;;16.47;15.00;;;9.20;99.90;;;;;;10498750;28;20212;-82
2021/12/17 17:09:29;;;;;;;16.77;15.27;;;9.10;99.90;;;;;;10501536;28;20747;-81
2021/12/17 17:14:32;;;;;;;17.07;15.47;;;9.10;99.90;;;;;;10497007;28;20247;-81
2021/12/17 17:19:36;;;;;;;17.60;16.03;;;9.10;99.90;;;;;;10500419;28;20220;-82
2021/12/17 17:24:39;;;;;;;17.53;15.93;;;9.10;99.90;;;;;;10470366;28;20279;-81
2021/12/17 17:29:43;;;;;;;15.90;14.40;;;9.10;99.90;;;;;;10503238;28;20228;-84
2021/12/17 17:34:47;;;;;;;16.07;14.70;;;9.10;99.90;;;;;;10487450;28;20251;-85
2021/12/17 17:39:49;;;;;;;17.97;16.17;;;9.10;99.90;;;;;;10481345;28;20283;-81
2021/12/17 17:44:51;;;;;;;16.40;15.00;;;9.10;99.90;;;;;;10498468;28;20231;-80
2021/12/17 17:49:55;;;;;;;16.30;14.80;;;9.10;99.90;;;;;;10500581;28;20196;-82
2021/12/17 17:54:58;;;;;;;17.73;15.97;;;9.10;99.90;;;;;;10501723;22;20315;-80
2021/12/17 18:00:01;;;;;;;17.23;15.63;;;9.10;99.90;;;;;;10476682;28;20203;-80
2021/12/17 18:05:12;;;;;;;16.77;15.27;;;9.00;99.90;;;;;;10494506;28;20250;-80
2021/12/17 18:10:16;;;;;;;16.60;14.97;;;9.00;99.90;;;;;;10493604;28;20208;-80
2021/12/17 18:15:19;;;;;;;15.90;14.40;;;8.90;99.90;;;;;;10477222;28;20228;-78
2021/12/17 18:20:24;;;;;;;18.03;16.37;;;8.90;99.90;;;;;;10493661;28;20201;-77
2021/12/17 18:25:26;;;;;;;16.43;14.83;;;8.90;99.90;;;;;;10475164;28;20216;-77
2021/12/17 18:30:29;;;;;;;17.07;15.57;;;8.90;99.90;;;;;;10492462;28;20203;-76
2021/12/17 18:35:32;;;;;;;16.03;14.60;;;8.80;99.90;;;;;;10500063;28;20235;-77
2021/12/17 18:40:41;;;;;;;16.77;15.27;;;8.80;99.90;;;;;;10498778;28;20227;-77
2021/12/17 18:45:44;;;;;;;17.97;16.27;;;8.70;99.90;;;;;;10480948;28;20669;-76
2021/12/17 18:50:49;;;;;;;21.27;17.17;;;8.70;99.90;;;;;;10497828;28;20201;-76
2021/12/17 18:55:52;;;;;;;17.57;15.90;;;8.70;99.90;;;;;;10498465;28;20220;-77
2021/12/17 19:00:54;;;;;;;17.57;15.93;;;8.60;99.90;;;;;;10499186;28;20209;-76
2021/12/17 19:05:59;;;;;;;18.80;16.97;;;8.70;99.90;;;;;;10497926;28;20232;-76
2021/12/17 19:11:02;;;;;;;18.67;16.77;;;8.70;99.90;;;;;;10498819;28;20582;-76
2021/12/17 19:16:05;;;;;;;20.13;18.23;;;8.60;99.90;;;;;;10497660;28;20231;-76
2021/12/17 19:21:17;;;;;;;19.47;17.57;;;8.50;99.90;;;;;;10495332;28;20292;-78
2021/12/17 19:26:19;;;;;;;19.77;17.87;;;8.50;99.90;;;;;;10494976;28;20251;-78
2021/12/17 19:31:22;;;;;;;20.90;18.80;;;8.50;99.90;;;;;;10498956;28;20700;-78
2021/12/17 19:36:29;;;;;;;20.23;18.33;;;8.40;99.90;;;;;;10494040;28;20228;-78
2021/12/17 19:41:31;;;;;;;19.93;18.00;;;8.40;99.90;;;;;;10494921;28;20564;-78
2021/12/17 19:46:41;;;;;;;18.10;16.50;;;8.40;99.90;;;;;;10495315;28;20233;-76
2021/12/17 19:51:45;;;;;;;20.43;18.53;;;8.40;99.90;;;;;;10497974;28;20247;-76
2021/12/17 19:56:47;;;;;;;19.40;17.60;;;8.40;99.90;;;;;;10479076;28;20573;-76
2021/12/17 20:01:50;;;;;;;20.27;18.30;;;8.50;99.90;;;;;;10495926;28;20203;-76
2021/12/17 20:06:55;;;;;;;20.17;18.37;;;8.40;99.90;;;;;;10494321;28;20251;-76
2021/12/17 20:11:59;;;;;;;21.70;19.60;;;8.50;99.90;;;;;;10506698;28;20226;-77
2021/12/17 20:17:01;;;;;;;21.47;19.40;;;8.40;99.90;;;;;;10496420;28;20239;-78
2021/12/17 20:22:06;;;;;;;21.10;19.07;;;8.40;99.90;;;;;;10499096;28;20280;-78
2021/12/17 20:27:10;;;;;;;21.50;19.43;;;8.40;99.90;;;;;;10498562;28;20212;-76
2021/12/17 20:32:12;;;;;;;23.13;20.93;;;8.30;99.90;;;;;;10477362;28;20201;-76
2021/12/17 20:37:15;;;;;;;21.50;19.50;;;8.30;99.90;;;;;;10494173;28;20270;-76
2021/12/17 20:42:25;;;;;;;21.07;19.07;;;8.30;99.90;;;;;;10494782;28;20212;-78
2021/12/17 20:47:29;;;;;;;21.47;19.47;;;8.40;99.90;;;;;;10495013;28;20234;-78
2021/12/17 20:52:32;;;;;;;21.97;19.97;;;8.40;99.90;;;;;;10494433;28;20188;-78
2021/12/17 20:57:34;;;;;;;21.40;19.40;;;8.30;99.90;;;;;;10494531;28;20223;-78
2021/12/17 21:02:37;;;;;;;20.43;18.40;;;8.30;99.90;;;;;;10494163;28;20228;-78
2021/12/17 21:07:40;;;;;;;22.20;20.17;;;8.30;99.90;;;;;;10495264;28;20212;-78
2021/12/17 21:12:44;;;;;;;22.30;19.63;;;8.20;99.90;;;;;;10493529;28;20560;-78
2021/12/17 21:17:48;;;;;;;21.30;19.40;;;8.20;99.90;;;;;;10492745;28;20216;-78
2021/12/17 21:22:52;;;;;;;21.30;19.23;;;8.20;99.90;;;;;;10494897;28;20212;-78
2021/12/17 21:27:54;;;;;;;19.63;17.80;;;8.20;99.90;;;;;;10493380;28;20248;-78
2021/12/17 21:32:59;;;;;;;21.77;19.67;;;8.20;99.90;;;;;;10493863;28;20223;-78
2021/12/17 21:38:09;;;;;;;22.17;20.10;;;8.20;99.90;;;;;;10493171;28;20215;-78
2021/12/17 21:43:12;;;;;;;22.27;20.17;;;8.20;99.90;;;;;;10493563;28;20242;-78
2021/12/17 21:48:22;;;;;;;21.53;19.53;;;8.20;99.90;;;;;;10476288;28;20718;-78
2021/12/17 21:53:30;;;;;;;22.30;20.27;;;8.20;99.90;;;;;;10492948;28;20220;-78
2021/12/17 21:58:33;;;;;;;20.80;18.83;;;8.20;99.90;;;;;;10476044;28;20201;-79
2021/12/17 22:03:36;;;;;;;22.03;19.87;;;8.20;99.90;;;;;;10492787;28;20197;-77
2021/12/17 22:08:40;;;;;;;22.60;20.50;;;8.20;99.90;;;;;;10499545;28;20200;-76
2021/12/17 22:13:42;;;;;;;21.83;19.73;;;8.10;99.90;;;;;;10501717;28;20224;-76
2021/12/17 22:18:46;;;;;;;22.20;20.07;;;8.10;99.90;;;;;;10492816;28;20288;-76
2021/12/17 22:23:51;;;;;;;23.37;21.17;;;8.10;99.90;;;;;;10473357;28;20223;-76
2021/12/17 22:28:53;;;;;;;22.80;20.70;;;8.10;99.90;;;;;;10501117;28;20193;-76
2021/12/17 22:33:55;;;;;;;21.10;18.90;;;8.10;99.90;;;;;;10499620;28;20315;-76
2021/12/17 22:38:59;;;;;;;22.17;20.07;;;8.10;99.90;;;;;;10499025;28;20204;-76
2021/12/17 22:44:01;;;;;;;22.57;20.27;;;8.10;99.90;;;;;;10500473;28;20580;-76
2021/12/17 22:49:04;;;;;;;20.10;18.20;;;8.10;99.90;;;;;;10500076;28;20192;-78
2021/12/17 22:54:12;;;;;;;21.57;19.47;;;8.00;99.90;;;;;;10502796;28;20232;-78
2021/12/17 22:59:14;;;;;;;22.37;20.07;;;8.00;99.90;;;;;;10501434;28;20196;-78
2021/12/17 23:04:20;;;;;;;21.93;19.80;;;7.90;99.90;;;;;;10502654;28;20213;-78
2021/12/17 23:09:35;;;;;;;22.47;20.20;;;7.90;99.90;;;;;;10501489;28;20679;-78
2021/12/17 23:14:40;;;;;;;22.73;20.23;;;7.90;99.90;;;;;;10503363;28;20225;-78
2021/12/17 23:19:46;;;;;;;22.90;20.80;;;7.80;99.90;;;;;;10501970;28;20228;-78
2021/12/17 23:24:51;;;;;;;22.60;20.20;;;7.80;99.90;;;;;;10499098;28;20299;-78
2021/12/17 23:29:53;;;;;;;23.60;21.30;;;7.80;99.90;;;;;;10483726;28;20612;-78
2021/12/17 23:34:59;;;;;;;25.03;22.43;;;7.80;99.90;;;;;;10496788;28;20239;-77
2021/12/17 23:40:03;;;;;;;22.73;20.43;;;7.70;99.90;;;;;;10476057;28;20721;-77
2021/12/17 23:45:07;;;;;;;24.20;21.80;;;7.70;99.90;;;;;;10496751;28;20209;-77
2021/12/17 23:50:09;;;;;;;23.17;20.87;;;7.70;99.90;;;;;;10479082;28;20207;-77
2021/12/17 23:55:13;;;;;;;23.30;21.03;;;7.70;99.90;;;;;;10521770;22;20212;-80
